sensor_id;sensor_type;location;lat;lon;timestamp;temperature;humidity
40323;DHT22;26030;51.164;17.100;2023-04-03T00:00:23;21.60;59.80
40323;DHT22;26030;51.164;17.100;2023-04-03T00:05:47;21.60;59.80
40323;DHT22;26030;51.164;17.100;2023-04-03T00:10:52;21.70;59.60
40323;DHT22;26030;51.164;17.100;2023-04-03T00:15:56;22.10;59.00
40323;DHT22;26030;51.164;17.100;2023-04-03T00:21:00;22.40;58.10
40323;DHT22;26030;51.164;17.100;2023-04-03T00:26:05;22.70;57.50
40323;DHT22;26030;51.164;17.100;2023-04-03T00:31:09;22.80;57.20
40323;DHT22;26030;51.164;17.100;2023-04-03T00:36:15;22.90;56.90
40323;DHT22;26030;51.164;17.100;2023-04-03T00:41:19;23.00;56.40
40323;DHT22;26030;51.164;17.100;2023-04-03T00:46:24;23.10;56.30
40323;DHT22;26030;51.164;17.100;2023-04-03T00:51:29;23.10;56.00
40323;DHT22;26030;51.164;17.100;2023-04-03T00:56:33;23.00;56.00
40323;DHT22;26030;51.164;17.100;2023-04-03T01:01:39;23.10;56.00
40323;DHT22;26030;51.164;17.100;2023-04-03T01:06:44;23.10;55.80
40323;DHT22;26030;51.164;17.100;2023-04-03T01:11:48;23.20;55.80
40323;DHT22;26030;51.164;17.100;2023-04-03T01:16:53;23.20;55.80
40323;DHT22;26030;51.164;17.100;2023-04-03T01:22:03;23.20;55.20
40323;DHT22;26030;51.164;17.100;2023-04-03T01:27:17;23.30;55.70
40323;DHT22;26030;51.164;17.100;2023-04-03T01:32:21;23.30;55.00
40323;DHT22;26030;51.164;17.100;2023-04-03T01:37:25;23.40;55.10
40323;DHT22;26030;51.164;17.100;2023-04-03T01:42:29;23.40;55.00
40323;DHT22;26030;51.164;17.100;2023-04-03T01:47:33;23.40;55.00
40323;DHT22;26030;51.164;17.100;2023-04-03T01:52:38;23.40;55.00
40323;DHT22;26030;51.164;17.100;2023-04-03T01:57:42;23.50;54.60
40323;DHT22;26030;51.164;17.100;2023-04-03T02:02:46;23.70;54.00
40323;DHT22;26030;51.164;17.100;2023-04-03T02:07:50;23.80;53.60
40323;DHT22;26030;51.164;17.100;2023-04-03T02:12:54;23.80;53.90
40323;DHT22;26030;51.164;17.100;2023-04-03T02:18:00;23.70;53.80
40323;DHT22;26030;51.164;17.100;2023-04-03T02:23:11;23.60;54.20
40323;DHT22;26030;51.164;17.100;2023-04-03T02:28:15;23.60;54.20
40323;DHT22;26030;51.164;17.100;2023-04-03T02:33:19;23.60;54.10
40323;DHT22;26030;51.164;17.100;2023-04-03T02:38:25;23.50;54.40
40323;DHT22;26030;51.164;17.100;2023-04-03T02:43:30;23.30;54.50
40323;DHT22;26030;51.164;17.100;2023-04-03T02:48:34;23.20;54.70
40323;DHT22;26030;51.164;17.100;2023-04-03T02:53:38;23.10;54.90
40323;DHT22;26030;51.164;17.100;2023-04-03T02:58:47;23.00;55.10
40323;DHT22;26030;51.164;17.100;2023-04-03T03:03:52;22.90;55.80
40323;DHT22;26030;51.164;17.100;2023-04-03T03:08:56;22.80;55.60
40323;DHT22;26030;51.164;17.100;2023-04-03T03:14:01;22.70;55.90
40323;DHT22;26030;51.164;17.100;2023-04-03T03:19:05;22.60;55.90
40323;DHT22;26030;51.164;17.100;2023-04-03T03:24:10;22.50;56.70
40323;DHT22;26030;51.164;17.100;2023-04-03T03:29:15;22.40;56.80
40323;DHT22;26030;51.164;17.100;2023-04-03T03:34:20;22.40;56.50
40323;DHT22;26030;51.164;17.100;2023-04-03T03:39:24;22.30;56.80
40323;DHT22;26030;51.164;17.100;2023-04-03T03:44:29;22.20;57.30
40323;DHT22;26030;51.164;17.100;2023-04-03T03:49:33;22.20;56.80
40323;DHT22;26030;51.164;17.100;2023-04-03T03:54:38;22.10;57.10
40323;DHT22;26030;51.164;17.100;2023-04-03T03:59:42;22.10;56.80
40323;DHT22;26030;51.164;17.100;2023-04-03T04:04:48;22.00;57.10
40323;DHT22;26030;51.164;17.100;2023-04-03T04:09:53;22.00;57.00
40323;DHT22;26030;51.164;17.100;2023-04-03T04:14:57;21.90;56.90
40323;DHT22;26030;51.164;17.100;2023-04-03T04:20:04;21.90;57.30
40323;DHT22;26030;51.164;17.100;2023-04-03T04:25:09;21.90;56.90
40323;DHT22;26030;51.164;17.100;2023-04-03T04:30:14;22.40;56.20
40323;DHT22;26030;51.164;17.100;2023-04-03T04:35:19;22.70;54.90
40323;DHT22;26030;51.164;17.100;2023-04-03T04:40:24;23.00;54.70
40323;DHT22;26030;51.164;17.100;2023-04-03T04:45:29;23.10;54.60
40323;DHT22;26030;51.164;17.100;2023-04-03T04:50:34;23.20;54.10
40323;DHT22;26030;51.164;17.100;2023-04-03T04:55:39;23.30;53.70
40323;DHT22;26030;51.164;17.100;2023-04-03T05:00:44;23.30;53.60
40323;DHT22;26030;51.164;17.100;2023-04-03T05:05:50;23.30;53.50
40323;DHT22;26030;51.164;17.100;2023-04-03T05:10:54;23.30;53.50
40323;DHT22;26030;51.164;17.100;2023-04-03T05:15:59;23.30;53.30
40323;DHT22;26030;51.164;17.100;2023-04-03T05:21:04;23.30;53.30
40323;DHT22;26030;51.164;17.100;2023-04-03T05:26:08;23.40;53.20
40323;DHT22;26030;51.164;17.100;2023-04-03T05:31:14;23.40;53.20
40323;DHT22;26030;51.164;17.100;2023-04-03T05:36:19;23.40;53.20
40323;DHT22;26030;51.164;17.100;2023-04-03T05:41:26;23.40;53.50
40323;DHT22;26030;51.164;17.100;2023-04-03T05:46:31;23.40;53.00
40323;DHT22;26030;51.164;17.100;2023-04-03T05:51:38;23.50;53.10
40323;DHT22;26030;51.164;17.100;2023-04-03T05:56:50;23.50;52.90
40323;DHT22;26030;51.164;17.100;2023-04-03T06:01:55;23.50;53.10
40323;DHT22;26030;51.164;17.100;2023-04-03T06:07:00;23.40;53.60
40323;DHT22;26030;51.164;17.100;2023-04-03T06:12:04;23.50;53.40
40323;DHT22;26030;51.164;17.100;2023-04-03T06:17:09;23.60;53.40
40323;DHT22;26030;51.164;17.100;2023-04-03T06:22:14;23.40;54.00
40323;DHT22;26030;51.164;17.100;2023-04-03T06:27:18;23.50;54.40
40323;DHT22;26030;51.164;17.100;2023-04-03T06:32:22;23.40;54.60
40323;DHT22;26030;51.164;17.100;2023-04-03T06:37:27;23.30;54.40
40323;DHT22;26030;51.164;17.100;2023-04-03T06:42:34;23.20;55.10
40323;DHT22;26030;51.164;17.100;2023-04-03T06:47:45;23.00;55.70
40323;DHT22;26030;51.164;17.100;2023-04-03T06:52:50;22.90;55.30
40323;DHT22;26030;51.164;17.100;2023-04-03T06:57:54;22.80;55.00
40323;DHT22;26030;51.164;17.100;2023-04-03T07:02:59;22.90;55.50
40323;DHT22;26030;51.164;17.100;2023-04-03T07:08:03;22.60;51.10
40323;DHT22;26030;51.164;17.100;2023-04-03T07:13:08;22.50;53.20
40323;DHT22;26030;51.164;17.100;2023-04-03T07:18:12;22.40;53.00
40323;DHT22;26030;51.164;17.100;2023-04-03T07:23:16;22.30;53.40
40323;DHT22;26030;51.164;17.100;2023-04-03T07:28:22;22.30;53.60
40323;DHT22;26030;51.164;17.100;2023-04-03T07:33:26;22.20;53.70
40323;DHT22;26030;51.164;17.100;2023-04-03T07:38:31;22.20;54.00
40323;DHT22;26030;51.164;17.100;2023-04-03T07:43:35;22.20;53.70
40323;DHT22;26030;51.164;17.100;2023-04-03T07:48:40;22.10;53.60
40323;DHT22;26030;51.164;17.100;2023-04-03T07:53:44;22.10;53.60
40323;DHT22;26030;51.164;17.100;2023-04-03T07:58:48;22.10;53.30
40323;DHT22;26030;51.164;17.100;2023-04-03T08:03:52;22.00;53.20
40323;DHT22;26030;51.164;17.100;2023-04-03T08:08:56;22.10;52.80
40323;DHT22;26030;51.164;17.100;2023-04-03T08:14:00;22.20;52.70
40323;DHT22;26030;51.164;17.100;2023-04-03T08:19:06;22.10;52.80
40323;DHT22;26030;51.164;17.100;2023-04-03T08:24:21;22.10;52.90
40323;DHT22;26030;51.164;17.100;2023-04-03T08:29:27;22.00;53.40
40323;DHT22;26030;51.164;17.100;2023-04-03T08:34:32;21.90;54.30
40323;DHT22;26030;51.164;17.100;2023-04-03T08:39:40;21.80;54.90
40323;DHT22;26030;51.164;17.100;2023-04-03T08:49:52;21.70;55.90
40323;DHT22;26030;51.164;17.100;2023-04-03T08:55:25;21.70;56.60
40323;DHT22;26030;51.164;17.100;2023-04-03T09:00:37;21.70;56.30
40323;DHT22;26030;51.164;17.100;2023-04-03T09:05:55;21.60;56.70
40323;DHT22;26030;51.164;17.100;2023-04-03T09:11:11;21.80;56.30
40323;DHT22;26030;51.164;17.100;2023-04-03T09:16:27;22.40;55.00
40323;DHT22;26030;51.164;17.100;2023-04-03T09:21:36;22.80;54.60
40323;DHT22;26030;51.164;17.100;2023-04-03T09:31:54;23.10;53.80
40323;DHT22;26030;51.164;17.100;2023-04-03T09:37:02;23.10;53.70
40323;DHT22;26030;51.164;17.100;2023-04-03T09:42:22;23.20;53.90
40323;DHT22;26030;51.164;17.100;2023-04-03T09:47:30;23.30;53.60
40323;DHT22;26030;51.164;17.100;2023-04-03T09:52:37;23.40;53.70
40323;DHT22;26030;51.164;17.100;2023-04-03T09:57:43;23.50;53.90
40323;DHT22;26030;51.164;17.100;2023-04-03T10:02:53;23.40;54.20
40323;DHT22;26030;51.164;17.100;2023-04-03T10:08:10;23.40;53.90
40323;DHT22;26030;51.164;17.100;2023-04-03T10:13:18;23.50;54.20
40323;DHT22;26030;51.164;17.100;2023-04-03T10:18:32;23.60;54.00
40323;DHT22;26030;51.164;17.100;2023-04-03T10:23:58;23.60;53.80
40323;DHT22;26030;51.164;17.100;2023-04-03T10:34:33;23.80;53.50
40323;DHT22;26030;51.164;17.100;2023-04-03T10:39:52;23.80;53.70
40323;DHT22;26030;51.164;17.100;2023-04-03T10:45:40;23.70;54.00
40323;DHT22;26030;51.164;17.100;2023-04-03T10:56:02;23.50;53.90
40323;DHT22;26030;51.164;17.100;2023-04-03T11:01:33;23.40;54.30
40323;DHT22;26030;51.164;17.100;2023-04-03T11:06:44;23.20;54.80
40323;DHT22;26030;51.164;17.100;2023-04-03T11:12:05;23.10;54.80
40323;DHT22;26030;51.164;17.100;2023-04-03T11:17:35;23.10;55.50
40323;DHT22;26030;51.164;17.100;2023-04-03T11:22:51;23.00;55.10
40323;DHT22;26030;51.164;17.100;2023-04-03T11:28:03;22.90;55.70
40323;DHT22;26030;51.164;17.100;2023-04-03T11:38:41;22.90;55.60
40323;DHT22;26030;51.164;17.100;2023-04-03T11:49:58;22.80;55.80
40323;DHT22;26030;51.164;17.100;2023-04-03T12:16:21;22.50;55.80
40323;DHT22;26030;51.164;17.100;2023-04-03T12:48:50;22.30;55.70
40323;DHT22;26030;51.164;17.100;2023-04-03T12:54:02;22.30;55.70
40323;DHT22;26030;51.164;17.100;2023-04-03T12:59:21;22.30;55.60
40323;DHT22;26030;51.164;17.100;2023-04-03T13:04:27;22.20;55.50
40323;DHT22;26030;51.164;17.100;2023-04-03T13:09:33;22.30;55.60
40323;DHT22;26030;51.164;17.100;2023-04-03T13:14:37;22.30;55.60
40323;DHT22;26030;51.164;17.100;2023-04-03T13:19:42;22.20;55.50
40323;DHT22;26030;51.164;17.100;2023-04-03T13:24:49;22.20;55.50
40323;DHT22;26030;51.164;17.100;2023-04-03T13:29:57;22.10;55.40
40323;DHT22;26030;51.164;17.100;2023-04-03T13:35:23;22.10;55.50
40323;DHT22;26030;51.164;17.100;2023-04-03T13:40:46;22.00;55.20
40323;DHT22;26030;51.164;17.100;2023-04-03T13:51:27;22.00;55.00
40323;DHT22;26030;51.164;17.100;2023-04-03T14:06:59;21.90;55.00
40323;DHT22;26030;51.164;17.100;2023-04-03T14:12:07;21.90;55.40
40323;DHT22;26030;51.164;17.100;2023-04-03T14:17:35;21.90;54.80
40323;DHT22;26030;51.164;17.100;2023-04-03T14:22:39;21.90;54.50
40323;DHT22;26030;51.164;17.100;2023-04-03T14:27:47;21.80;54.40
40323;DHT22;26030;51.164;17.100;2023-04-03T14:32:53;21.90;53.30
40323;DHT22;26030;51.164;17.100;2023-04-03T14:37:58;21.90;53.60
40323;DHT22;26030;51.164;17.100;2023-04-03T14:43:02;21.90;54.00
40323;DHT22;26030;51.164;17.100;2023-04-03T14:48:09;21.90;53.50
40323;DHT22;26030;51.164;17.100;2023-04-03T14:53:20;21.80;53.50
40323;DHT22;26030;51.164;17.100;2023-04-03T14:58:41;21.70;53.40
40323;DHT22;26030;51.164;17.100;2023-04-03T15:03:52;21.70;53.90
40323;DHT22;26030;51.164;17.100;2023-04-03T15:08:57;21.80;55.00
40323;DHT22;26030;51.164;17.100;2023-04-03T15:14:01;21.90;55.30
40323;DHT22;26030;51.164;17.100;2023-04-03T15:19:05;21.90;56.40
40323;DHT22;26030;51.164;17.100;2023-04-03T15:24:09;21.90;56.80
40323;DHT22;26030;51.164;17.100;2023-04-03T15:29:14;21.90;57.30
40323;DHT22;26030;51.164;17.100;2023-04-03T15:34:18;21.70;57.00
40323;DHT22;26030;51.164;17.100;2023-04-03T15:39:24;21.70;57.10
40323;DHT22;26030;51.164;17.100;2023-04-03T15:44:29;21.80;56.20
40323;DHT22;26030;51.164;17.100;2023-04-03T15:49:33;21.80;56.30
40323;DHT22;26030;51.164;17.100;2023-04-03T15:54:38;21.70;55.90
40323;DHT22;26030;51.164;17.100;2023-04-03T15:59:42;21.60;56.30
40323;DHT22;26030;51.164;17.100;2023-04-03T16:04:47;21.60;56.00
40323;DHT22;26030;51.164;17.100;2023-04-03T16:09:51;21.50;55.70
40323;DHT22;26030;51.164;17.100;2023-04-03T16:14:56;21.50;55.70
40323;DHT22;26030;51.164;17.100;2023-04-03T16:20:00;21.60;55.60
40323;DHT22;26030;51.164;17.100;2023-04-03T16:25:06;22.00;54.10
40323;DHT22;26030;51.164;17.100;2023-04-03T16:30:13;22.40;53.60
40323;DHT22;26030;51.164;17.100;2023-04-03T16:35:18;22.60;52.90
40323;DHT22;26030;51.164;17.100;2023-04-03T16:40:24;22.70;52.40
40323;DHT22;26030;51.164;17.100;2023-04-03T16:45:29;22.80;52.00
40323;DHT22;26030;51.164;17.100;2023-04-03T16:50:35;23.00;51.80
40323;DHT22;26030;51.164;17.100;2023-04-03T16:55:42;23.10;51.50
40323;DHT22;26030;51.164;17.100;2023-04-03T17:00:47;23.10;51.20
40323;DHT22;26030;51.164;17.100;2023-04-03T17:05:52;23.20;52.00
40323;DHT22;26030;51.164;17.100;2023-04-03T17:10:57;23.30;51.10
40323;DHT22;26030;51.164;17.100;2023-04-03T17:16:04;23.40;50.50
40323;DHT22;26030;51.164;17.100;2023-04-03T17:21:18;23.40;50.20
40323;DHT22;26030;51.164;17.100;2023-04-03T17:26:27;23.50;50.10
40323;DHT22;26030;51.164;17.100;2023-04-03T17:31:40;23.60;49.90
40323;DHT22;26030;51.164;17.100;2023-04-03T17:36:50;23.60;49.60
40323;DHT22;26030;51.164;17.100;2023-04-03T17:42:00;23.70;50.00
40323;DHT22;26030;51.164;17.100;2023-04-03T17:47:09;23.70;49.50
40323;DHT22;26030;51.164;17.100;2023-04-03T17:52:17;23.70;49.30
40323;DHT22;26030;51.164;17.100;2023-04-03T17:57:26;23.60;49.50
40323;DHT22;26030;51.164;17.100;2023-04-03T18:02:35;23.40;49.80
40323;DHT22;26030;51.164;17.100;2023-04-03T18:07:41;23.30;50.10
40323;DHT22;26030;51.164;17.100;2023-04-03T18:12:47;23.10;50.80
40323;DHT22;26030;51.164;17.100;2023-04-03T18:17:56;23.00;51.20
40323;DHT22;26030;51.164;17.100;2023-04-03T18:23:03;22.90;51.70
40323;DHT22;26030;51.164;17.100;2023-04-03T18:28:08;23.00;51.00
40323;DHT22;26030;51.164;17.100;2023-04-03T18:33:14;23.00;51.80
40323;DHT22;26030;51.164;17.100;2023-04-03T18:38:20;22.80;51.70
40323;DHT22;26030;51.164;17.100;2023-04-03T18:43:26;22.70;51.90
40323;DHT22;26030;51.164;17.100;2023-04-03T18:48:34;22.50;52.20
40323;DHT22;26030;51.164;17.100;2023-04-03T18:53:44;22.50;53.00
40323;DHT22;26030;51.164;17.100;2023-04-03T18:58:56;22.40;53.10
40323;DHT22;26030;51.164;17.100;2023-04-03T19:04:01;22.30;52.80
40323;DHT22;26030;51.164;17.100;2023-04-03T19:09:08;22.30;53.10
40323;DHT22;26030;51.164;17.100;2023-04-03T19:14:14;22.30;52.90
40323;DHT22;26030;51.164;17.100;2023-04-03T19:19:20;22.30;52.60
40323;DHT22;26030;51.164;17.100;2023-04-03T19:24:27;22.30;52.70
40323;DHT22;26030;51.164;17.100;2023-04-03T19:29:34;22.20;52.40
40323;DHT22;26030;51.164;17.100;2023-04-03T19:34:41;22.10;52.60
40323;DHT22;26030;51.164;17.100;2023-04-03T19:39:47;22.00;52.80
40323;DHT22;26030;51.164;17.100;2023-04-03T19:44:53;22.00;52.50
40323;DHT22;26030;51.164;17.100;2023-04-03T19:49:58;22.00;52.50
40323;DHT22;26030;51.164;17.100;2023-04-03T19:55:06;22.10;53.40
40323;DHT22;26030;51.164;17.100;2023-04-03T20:00:12;22.10;52.80
40323;DHT22;26030;51.164;17.100;2023-04-03T20:05:27;22.00;52.80
40323;DHT22;26030;51.164;17.100;2023-04-03T20:10:33;21.90;52.90
40323;DHT22;26030;51.164;17.100;2023-04-03T20:15:46;21.80;53.10
40323;DHT22;26030;51.164;17.100;2023-04-03T20:20:57;21.80;53.10
40323;DHT22;26030;51.164;17.100;2023-04-03T20:26:07;21.70;53.20
40323;DHT22;26030;51.164;17.100;2023-04-03T20:31:19;21.80;53.10
40323;DHT22;26030;51.164;17.100;2023-04-03T20:36:27;21.80;53.10
40323;DHT22;26030;51.164;17.100;2023-04-03T20:41:33;21.70;52.70
40323;DHT22;26030;51.164;17.100;2023-04-03T20:46:41;21.70;53.40
40323;DHT22;26030;51.164;17.100;2023-04-03T20:51:51;21.60;53.30
40323;DHT22;26030;51.164;17.100;2023-04-03T20:56:56;22.00;55.90
40323;DHT22;26030;51.164;17.100;2023-04-03T21:02:00;22.50;55.50
40323;DHT22;26030;51.164;17.100;2023-04-03T21:23:33;22.90;54.60
40323;DHT22;26030;51.164;17.100;2023-04-03T21:28:37;22.90;54.70
40323;DHT22;26030;51.164;17.100;2023-04-03T21:33:41;23.10;54.70
40323;DHT22;26030;51.164;17.100;2023-04-03T21:38:46;23.20;55.00
40323;DHT22;26030;51.164;17.100;2023-04-03T21:43:51;23.20;54.80
40323;DHT22;26030;51.164;17.100;2023-04-03T21:48:55;23.20;54.20
40323;DHT22;26030;51.164;17.100;2023-04-03T21:53:59;23.30;53.80
40323;DHT22;26030;51.164;17.100;2023-04-03T21:59:03;23.30;53.80
40323;DHT22;26030;51.164;17.100;2023-04-03T22:04:07;23.20;53.80
40323;DHT22;26030;51.164;17.100;2023-04-03T22:09:12;23.00;54.20
40323;DHT22;26030;51.164;17.100;2023-04-03T22:14:17;22.80;54.60
40323;DHT22;26030;51.164;17.100;2023-04-03T22:19:22;22.60;54.90
40323;DHT22;26030;51.164;17.100;2023-04-03T22:24:26;22.60;55.50
40323;DHT22;26030;51.164;17.100;2023-04-03T22:29:30;22.60;55.30
40323;DHT22;26030;51.164;17.100;2023-04-03T22:34:35;22.50;55.00
40323;DHT22;26030;51.164;17.100;2023-04-03T22:39:42;22.50;55.00
40323;DHT22;26030;51.164;17.100;2023-04-03T22:44:46;22.50;54.70
40323;DHT22;26030;51.164;17.100;2023-04-03T22:49:50;22.50;54.40
40323;DHT22;26030;51.164;17.100;2023-04-03T22:54:54;22.40;54.40
40323;DHT22;26030;51.164;17.100;2023-04-03T23:00:01;22.30;54.40
40323;DHT22;26030;51.164;17.100;2023-04-03T23:05:06;22.20;54.80
40323;DHT22;26030;51.164;17.100;2023-04-03T23:10:11;22.10;54.80
40323;DHT22;26030;51.164;17.100;2023-04-03T23:15:15;22.10;54.80
40323;DHT22;26030;51.164;17.100;2023-04-03T23:20:22;22.00;54.80
40323;DHT22;26030;51.164;17.100;2023-04-03T23:25:26;22.00;55.10
40323;DHT22;26030;51.164;17.100;2023-04-03T23:30:30;22.00;55.00
40323;DHT22;26030;51.164;17.100;2023-04-03T23:35:40;21.90;55.20
40323;DHT22;26030;51.164;17.100;2023-04-03T23:40:51;21.90;54.80
40323;DHT22;26030;51.164;17.100;2023-04-03T23:45:55;22.00;54.50
40323;DHT22;26030;51.164;17.100;2023-04-03T23:51:00;21.90;54.80
40323;DHT22;26030;51.164;17.100;2023-04-03T23:56:04;22.20;54.80
